Time;durP1;ratioP1;P1;durP2;ratioP2;P2;SDS_P1;SDS_P2;PMS_P1;PMS_P2;Temp;Humidity;BMP_temperature;BMP_pressure;BME280_temperature;BME280_humidity;BME280_pressure;Samples;Min_cycle;Max_cycle;Signal;HPM_P1;HPM_P2
2022/08/03 00:01:36;;;;;;;12.98;4.30;;;18.90;99.90;;;;;;5063358;28;20031;-71
2022/08/03 00:04:03;;;;;;;16.88;4.63;;;18.90;99.90;;;;;;5066721;28;20473;-69
2022/08/03 00:06:29;;;;;;;12.57;4.18;;;18.90;99.90;;;;;;5066732;28;20037;-70
2022/08/03 00:08:55;;;;;;;16.15;4.53;;;18.90;99.90;;;;;;5030853;28;20075;-68
2022/08/03 00:11:20;;;;;;;16.38;4.72;;;18.90;99.90;;;;;;5068449;28;20494;-69
2022/08/03 00:13:46;;;;;;;20.40;4.32;;;18.90;99.90;;;;;;5063528;28;20133;-70
2022/08/03 00:16:12;;;;;;;15.32;4.80;;;18.90;99.90;;;;;;5065244;28;20032;-68
2022/08/03 00:18:38;;;;;;;19.20;4.47;;;18.90;99.90;;;;;;5064215;28;20029;-69
2022/08/03 00:21:04;;;;;;;15.02;4.40;;;18.90;99.90;;;;;;5068317;28;20067;-68
2022/08/03 00:23:30;;;;;;;14.93;4.55;;;18.90;99.90;;;;;;5047499;28;20547;-70
2022/08/03 00:25:56;;;;;;;15.38;4.95;;;18.90;99.90;;;;;;5066645;28;20060;-67
2022/08/03 00:28:22;;;;;;;19.52;4.88;;;18.80;99.90;;;;;;5065536;28;20039;-68
2022/08/03 00:30:48;;;;;;;18.73;4.50;;;18.80;99.90;;;;;;5047775;28;20044;-69
2022/08/03 00:33:14;;;;;;;15.98;4.70;;;18.80;99.90;;;;;;5062433;28;20072;-68
2022/08/03 00:35:40;;;;;;;17.50;5.25;;;18.80;99.90;;;;;;5063284;28;20106;-68
2022/08/03 00:38:05;;;;;;;18.02;5.38;;;18.70;99.90;;;;;;5064240;28;20032;-68
2022/08/03 00:40:32;;;;;;;16.70;5.00;;;18.70;99.90;;;;;;5066781;28;20025;-68
2022/08/03 00:43:03;;;;;;;17.77;5.25;;;18.70;99.90;;;;;;5064654;28;20046;-68
2022/08/03 00:45:32;;;;;;;20.98;6.05;;;18.80;99.90;;;;;;5065431;28;20429;-68
2022/08/03 00:47:58;;;;;;;14.23;5.20;;;18.70;99.90;;;;;;5065746;28;20486;-66
2022/08/03 00:50:25;;;;;;;17.67;4.82;;;18.70;99.90;;;;;;5065955;28;20135;-68
2022/08/03 00:52:54;;;;;;;22.38;5.85;;;18.80;99.90;;;;;;5066934;28;20020;-69
2022/08/03 00:55:20;;;;;;;16.58;4.90;;;18.70;99.90;;;;;;5067197;28;20055;-69
2022/08/03 00:57:46;;;;;;;16.58;5.65;;;18.70;99.90;;;;;;5063812;28;20039;-70
2022/08/03 01:00:14;;;;;;;16.85;5.03;;;18.70;99.90;;;;;;5049397;28;20107;-69
2022/08/03 01:02:40;;;;;;;15.88;4.93;;;18.70;99.90;;;;;;5048325;28;20082;-68
2022/08/03 01:05:08;;;;;;;17.83;5.68;;;18.70;99.90;;;;;;5047729;28;20033;-68
2022/08/03 01:08:00;;;;;;;17.70;5.15;;;18.70;99.90;;;;;;5066059;28;20033;-70
2022/08/03 01:10:44;;;;;;;17.58;4.60;;;18.70;99.90;;;;;;5042626;28;20021;-69
2022/08/03 01:13:18;;;;;;;15.85;4.78;;;18.70;99.90;;;;;;5061216;28;20064;-69
2022/08/03 01:15:57;;;;;;;18.13;5.28;;;18.70;99.90;;;;;;5065524;28;20106;-69
2022/08/03 01:18:30;;;;;;;20.23;4.63;;;18.70;99.90;;;;;;5056429;28;20649;-67
2022/08/03 01:20:58;;;;;;;12.07;5.13;;;18.70;99.90;;;;;;5048884;28;20044;-69
2022/08/03 01:23:54;;;;;;;15.50;4.88;;;18.70;99.90;;;;;;5065263;28;20028;-69
2022/08/03 01:26:20;;;;;;;19.65;4.80;;;18.70;99.90;;;;;;5065602;28;20979;-68
2022/08/03 01:29:19;;;;;;;12.98;4.20;;;18.70;99.90;;;;;;5064520;28;20159;-69
2022/08/03 01:31:53;;;;;;;16.58;4.15;;;18.80;99.90;;;;;;5053046;28;20039;-67
2022/08/03 01:34:22;;;;;;;16.58;4.88;;;18.80;99.90;;;;;;5047242;28;20043;-67
2022/08/03 01:36:55;;;;;;;15.57;4.77;;;18.70;99.90;;;;;;5066057;28;20359;-67
2022/08/03 01:39:22;;;;;;;16.25;4.63;;;18.80;99.90;;;;;;5065273;28;22339;-68
2022/08/03 01:41:59;;;;;;;17.55;4.68;;;18.80;99.90;;;;;;5062246;28;20040;-69
2022/08/03 01:44:29;;;;;;;15.90;4.13;;;18.70;99.90;;;;;;5046682;28;20040;-67
2022/08/03 01:46:59;;;;;;;12.77;3.80;;;18.70;99.90;;;;;;5063764;28;20029;-69
2022/08/03 01:49:27;;;;;;;14.68;4.20;;;18.80;99.90;;;;;;5047583;28;20029;-69
2022/08/03 01:51:54;;;;;;;16.88;4.60;;;18.80;99.90;;;;;;5063054;28;20040;-68
2022/08/03 01:54:24;;;;;;;18.63;5.03;;;18.80;99.90;;;;;;5066024;28;20021;-68
2022/08/03 01:56:51;;;;;;;12.63;4.70;;;18.80;99.90;;;;;;5048890;28;20040;-68
2022/08/03 01:59:20;;;;;;;15.63;4.18;;;18.70;99.90;;;;;;5066028;28;20055;-68
2022/08/03 02:01:48;;;;;;;19.88;5.07;;;18.70;99.90;;;;;;5062532;28;20090;-68
2022/08/03 02:04:17;;;;;;;12.00;4.03;;;18.70;99.90;;;;;;5046432;28;20041;-68
2022/08/03 02:06:45;;;;;;;17.15;4.40;;;18.70;99.90;;;;;;5061793;28;20029;-68
2022/08/03 02:09:13;;;;;;;14.02;4.10;;;18.70;99.90;;;;;;5068508;28;20028;-69
2022/08/03 02:11:41;;;;;;;10.60;3.92;;;18.70;99.90;;;;;;5068927;28;20077;-69
2022/08/03 02:14:08;;;;;;;15.10;3.60;;;18.70;99.90;;;;;;5067821;28;20049;-69
2022/08/03 02:16:35;;;;;;;14.00;3.67;;;18.70;99.90;;;;;;5051073;28;20040;-69
2022/08/03 02:19:03;;;;;;;11.93;3.35;;;18.80;99.90;;;;;;5069398;28;20040;-67
2022/08/03 02:21:35;;;;;;;12.00;3.85;;;18.70;99.90;;;;;;5069281;28;20043;-66
2022/08/03 02:24:03;;;;;;;11.05;3.33;;;18.70;99.90;;;;;;5070076;28;20029;-68
2022/08/03 02:26:30;;;;;;;10.45;3.10;;;18.70;99.90;;;;;;5047345;28;20120;-68
2022/08/03 02:29:00;;;;;;;18.10;3.47;;;18.80;99.90;;;;;;5068524;28;20037;-69
2022/08/03 02:31:29;;;;;;;14.73;3.45;;;18.80;99.90;;;;;;5064399;28;20120;-68
2022/08/03 02:33:57;;;;;;;;;;;18.80;99.90;;;;;;5050474;28;20441;-68
2022/08/03 02:36:27;;;;;;;10.52;2.90;;;18.80;99.90;;;;;;5067310;28;19923;-67
2022/08/03 02:38:57;;;;;;;13.63;2.90;;;18.70;99.90;;;;;;5069982;28;20037;-68
2022/08/03 02:41:29;;;;;;;9.93;2.65;;;18.70;99.90;;;;;;5050659;28;20035;-69
2022/08/03 02:43:58;;;;;;;9.05;2.58;;;18.80;99.90;;;;;;5062758;28;20040;-69
2022/08/03 02:46:31;;;;;;;13.90;2.67;;;18.70;99.90;;;;;;5067055;28;20123;-69
2022/08/03 02:49:00;;;;;;;11.02;2.83;;;18.70;99.90;;;;;;5068184;28;20123;-69
2022/08/03 02:51:29;;;;;;;9.10;2.63;;;18.80;99.90;;;;;;5048694;28;20037;-67
2022/08/03 02:53:56;;;;;;;10.05;2.50;;;18.70;99.90;;;;;;5049655;28;20534;-67
2022/08/03 02:56:24;;;;;;;9.32;2.90;;;18.70;99.90;;;;;;5068929;28;20046;-69
2022/08/03 02:58:52;;;;;;;9.25;2.50;;;18.80;99.90;;;;;;5067261;28;20474;-68
2022/08/03 03:01:25;;;;;;;12.52;2.60;;;18.70;99.90;;;;;;5069055;28;20020;-68
2022/08/03 03:03:53;;;;;;;10.20;2.72;;;18.70;99.90;;;;;;5039519;28;20089;-67
2022/08/03 03:06:21;;;;;;;12.65;2.67;;;18.80;99.90;;;;;;5068251;28;20025;-68
2022/08/03 03:08:47;;;;;;;10.15;2.88;;;18.80;99.90;;;;;;5067123;28;20028;-68
2022/08/03 03:11:16;;;;;;;11.82;2.97;;;18.80;99.90;;;;;;5045891;28;20503;-68
2022/08/03 03:13:43;;;;;;;12.97;3.60;;;18.80;99.90;;;;;;5062061;28;20132;-69
2022/08/03 03:16:12;;;;;;;9.57;3.55;;;18.80;99.90;;;;;;5050507;28;20032;-67
2022/08/03 03:18:39;;;;;;;10.48;3.08;;;18.80;99.90;;;;;;5067080;28;20540;-68
2022/08/03 03:21:08;;;;;;;9.38;3.08;;;18.80;99.90;;;;;;5066970;28;20491;-69
2022/08/03 03:23:36;;;;;;;13.85;3.05;;;18.80;99.90;;;;;;5068720;28;20044;-69
2022/08/03 03:26:03;;;;;;;17.08;3.70;;;18.80;99.90;;;;;;5068662;28;20032;-68
2022/08/03 03:28:30;;;;;;;12.68;3.17;;;18.80;99.90;;;;;;5067892;28;20028;-68
2022/08/03 03:30:57;;;;;;;14.27;3.30;;;18.80;99.90;;;;;;5049217;28;20047;-69
2022/08/03 03:33:23;;;;;;;13.75;3.08;;;18.80;99.90;;;;;;5065526;28;20440;-67
2022/08/03 03:35:50;;;;;;;13.18;3.35;;;18.80;99.90;;;;;;5067663;28;20316;-68
2022/08/03 03:38:16;;;;;;;13.27;3.15;;;18.80;99.90;;;;;;5068551;28;20024;-67
2022/08/03 03:40:42;;;;;;;9.60;3.30;;;18.80;99.90;;;;;;5067514;28;20040;-67
2022/08/03 03:43:10;;;;;;;13.07;3.22;;;18.80;99.90;;;;;;5047872;28;20029;-68
2022/08/03 03:45:36;;;;;;;13.75;3.35;;;18.80;99.90;;;;;;5068752;28;20032;-67
2022/08/03 03:48:06;;;;;;;10.77;2.97;;;18.80;99.90;;;;;;5067415;28;20044;-67
2022/08/03 03:50:33;;;;;;;13.13;3.53;;;18.80;99.90;;;;;;5067211;28;20101;-68
2022/08/03 03:53:00;;;;;;;10.82;3.15;;;18.80;99.90;;;;;;5066355;28;20028;-68
2022/08/03 03:55:25;;;;;;;10.45;3.03;;;18.80;99.90;;;;;;5065757;28;20028;-68
2022/08/03 03:57:51;;;;;;;9.98;3.17;;;18.80;99.90;;;;;;5067696;28;20028;-69
2022/08/03 04:00:18;;;;;;;13.48;3.30;;;18.80;99.90;;;;;;5065224;28;20379;-69
2022/08/03 04:02:45;;;;;;;13.45;3.08;;;18.80;99.90;;;;;;5061311;28;20040;-70
2022/08/03 04:11:08;;;;;;;18.25;3.42;;;18.80;99.90;;;;;;5063738;28;20643;-68
2022/08/03 04:13:37;;;;;;;12.02;3.03;;;18.80;99.90;;;;;;5065652;28;20043;-69
2022/08/03 04:16:03;;;;;;;;;;;18.80;99.90;;;;;;5067114;28;20024;-69
2022/08/03 04:18:33;;;;;;;12.98;3.20;;;18.80;99.90;;;;;;5062337;28;20382;-66
2022/08/03 04:21:03;;;;;;;15.23;3.47;;;18.80;99.90;;;;;;5048955;28;20036;-67
2022/08/03 04:23:33;;;;;;;17.15;3.25;;;18.80;99.90;;;;;;5065426;28;20116;-67
2022/08/03 04:26:02;;;;;;;16.58;3.63;;;18.70;99.90;;;;;;5048606;28;20037;-68
2022/08/03 04:28:29;;;;;;;12.53;2.93;;;18.80;99.90;;;;;;5048201;28;20387;-67
2022/08/03 04:30:56;;;;;;;11.13;3.05;;;18.80;99.90;;;;;;5066344;28;20245;-67
2022/08/03 04:33:23;;;;;;;11.90;3.08;;;18.80;99.90;;;;;;5066544;28;20027;-67
2022/08/03 04:35:54;;;;;;;16.08;3.83;;;18.80;99.90;;;;;;5048057;28;20139;-68
2022/08/03 04:38:23;;;;;;;12.07;2.67;;;18.70;99.90;;;;;;5065454;28;20032;-68
2022/08/03 04:40:51;;;;;;;12.52;3.38;;;18.70;99.90;;;;;;5068172;28;20123;-67
2022/08/03 04:43:18;;;;;;;12.15;3.45;;;18.70;99.90;;;;;;5064304;28;20028;-68
2022/08/03 04:45:46;;;;;;;15.02;3.55;;;18.70;99.90;;;;;;5064949;28;20028;-67
2022/08/03 04:48:14;;;;;;;13.15;3.55;;;18.80;99.90;;;;;;5068107;28;20799;-68
2022/08/03 04:50:41;;;;;;;11.77;3.35;;;18.80;99.90;;;;;;5064772;28;20033;-67
2022/08/03 04:53:07;;;;;;;11.18;3.15;;;18.70;99.90;;;;;;5068003;28;20570;-69
2022/08/03 04:55:34;;;;;;;9.77;3.15;;;18.70;99.90;;;;;;5065207;28;20579;-68
2022/08/03 04:58:01;;;;;;;15.48;3.72;;;18.70;99.90;;;;;;5049109;28;20028;-67
2022/08/03 05:00:27;;;;;;;14.35;4.03;;;18.70;99.90;;;;;;5065234;28;20032;-71
2022/08/03 05:02:54;;;;;;;12.93;3.58;;;18.80;99.90;;;;;;5064294;28;20102;-69
2022/08/03 05:05:20;;;;;;;11.65;3.30;;;18.70;99.90;;;;;;5066122;28;20035;-68
2022/08/03 05:07:46;;;;;;;15.27;3.70;;;18.80;99.90;;;;;;5066465;28;20135;-68
2022/08/03 05:10:12;;;;;;;12.57;3.08;;;18.80;99.90;;;;;;5044681;28;20475;-68
2022/08/03 05:12:39;;;;;;;13.27;2.75;;;18.80;99.90;;;;;;5067774;28;20080;-70
2022/08/03 05:15:06;;;;;;;13.10;3.22;;;18.80;99.90;;;;;;5065559;28;20548;-70
2022/08/03 05:17:35;;;;;;;14.85;3.30;;;18.80;99.90;;;;;;5063675;28;20064;-71
2022/08/03 05:20:03;;;;;;;15.32;3.95;;;18.80;99.90;;;;;;5065742;28;20042;-68
2022/08/03 05:22:29;;;;;;;11.45;2.90;;;18.80;99.90;;;;;;5047644;28;20033;-70
2022/08/03 05:24:55;;;;;;;10.73;2.90;;;18.80;99.90;;;;;;5066015;28;20139;-69
2022/08/03 05:27:20;;;;;;;15.70;3.22;;;18.80;99.90;;;;;;5062783;28;20107;-68
2022/08/03 05:29:48;;;;;;;9.35;2.72;;;18.90;99.90;;;;;;5046463;28;20058;-70
2022/08/03 05:32:14;;;;;;;13.38;2.92;;;18.90;99.90;;;;;;5063804;28;20037;-67
2022/08/03 05:34:40;;;;;;;17.05;3.72;;;18.90;99.90;;;;;;5066690;28;20039;-68
2022/08/03 05:37:06;;;;;;;12.95;2.80;;;18.90;99.90;;;;;;5065092;28;20036;-69
2022/08/03 05:39:32;;;;;;;15.65;3.35;;;18.90;99.90;;;;;;5064943;28;20035;-69
2022/08/03 05:41:58;;;;;;;12.23;3.25;;;19.00;99.90;;;;;;5039128;28;20471;-69
2022/08/03 05:44:24;;;;;;;12.30;3.20;;;19.00;99.90;;;;;;5067220;28;20032;-69
2022/08/03 05:46:50;;;;;;;13.60;3.00;;;19.00;99.90;;;;;;5070363;28;20032;-69
2022/08/03 05:49:17;;;;;;;10.85;3.03;;;19.00;99.90;;;;;;5071063;28;20039;-68
2022/08/03 05:51:42;;;;;;;14.07;3.30;;;19.00;99.90;;;;;;5051648;28;20159;-69
2022/08/03 05:54:08;;;;;;;14.00;3.35;;;19.00;99.90;;;;;;5070732;28;20033;-68
2022/08/03 05:56:33;;;;;;;14.02;3.10;;;19.10;99.90;;;;;;5067652;28;20035;-68
2022/08/03 05:58:59;;;;;;;11.70;2.88;;;19.10;99.90;;;;;;5065306;28;20113;-68
2022/08/03 06:01:25;;;;;;;13.95;3.38;;;19.00;99.90;;;;;;5064950;28;20070;-68
2022/08/03 06:03:51;;;;;;;10.77;3.00;;;19.10;99.90;;;;;;5047648;28;20036;-67
2022/08/03 06:06:17;;;;;;;13.88;3.45;;;19.10;99.90;;;;;;5065055;28;20028;-69
2022/08/03 06:08:44;;;;;;;15.57;3.92;;;19.10;99.90;;;;;;5066049;28;20029;-67
2022/08/03 06:11:11;;;;;;;16.42;3.15;;;19.10;99.90;;;;;;5063827;28;20029;-68
2022/08/03 06:13:36;;;;;;;16.38;3.20;;;19.10;99.90;;;;;;5047803;28;20040;-68
2022/08/03 06:16:02;;;;;;;12.70;3.50;;;19.10;99.90;;;;;;5067639;28;20036;-68
2022/08/03 06:18:28;;;;;;;14.93;3.55;;;19.10;99.90;;;;;;5045802;28;20040;-68
2022/08/03 06:20:53;;;;;;;18.48;3.53;;;19.10;99.90;;;;;;5067182;28;20043;-70
2022/08/03 06:23:19;;;;;;;14.68;3.38;;;19.10;99.90;;;;;;5047705;28;20074;-69
2022/08/03 06:25:45;;;;;;;14.55;3.75;;;19.10;99.90;;;;;;5071027;28;20078;-68
2022/08/03 06:28:13;;;;;;;13.32;2.83;;;19.10;99.90;;;;;;5070431;28;20475;-69
2022/08/03 06:30:39;;;;;;;16.50;3.30;;;19.10;99.90;;;;;;5059941;28;20119;-68
2022/08/03 06:33:05;;;;;;;13.40;2.85;;;19.10;99.90;;;;;;5061713;28;20036;-68
2022/08/03 06:35:30;;;;;;;12.65;3.53;;;19.00;99.90;;;;;;5064101;28;20090;-69
2022/08/03 06:37:56;;;;;;;14.73;4.05;;;19.00;99.90;;;;;;5065848;28;20033;-68
2022/08/03 06:40:30;;;;;;;12.70;3.22;;;19.00;99.90;;;;;;5037897;28;20024;-69
2022/08/03 06:43:01;;;;;;;15.85;3.00;;;19.00;99.90;;;;;;5062969;28;20032;-67
2022/08/03 06:45:27;;;;;;;10.75;3.08;;;19.00;99.90;;;;;;5061558;28;20041;-67
2022/08/03 06:48:05;;;;;;;16.05;3.00;;;19.00;99.90;;;;;;5043410;28;20124;-69
2022/08/03 06:50:32;;;;;;;11.65;3.05;;;19.00;99.90;;;;;;5060779;28;20032;-67
2022/08/03 06:52:58;;;;;;;9.45;2.50;;;19.00;99.90;;;;;;5047507;28;20060;-68
2022/08/03 06:55:24;;;;;;;11.15;2.80;;;19.00;99.90;;;;;;5045427;28;20040;-68
2022/08/03 06:57:50;;;;;;;11.52;2.63;;;19.00;99.90;;;;;;5065199;28;20040;-70
2022/08/03 07:00:16;;;;;;;12.07;2.85;;;19.00;99.90;;;;;;5066047;28;20032;-70
2022/08/03 07:02:41;;;;;;;10.75;2.58;;;19.10;99.90;;;;;;5065347;28;20786;-68
2022/08/03 07:05:08;;;;;;;17.10;3.10;;;19.10;99.90;;;;;;5061491;28;20166;-69
2022/08/03 07:07:34;;;;;;;11.18;2.92;;;19.10;99.90;;;;;;5061159;28;20628;-68
2022/08/03 07:10:00;;;;;;;12.23;2.85;;;19.10;99.90;;;;;;5066139;28;20141;-69
2022/08/03 07:12:27;;;;;;;11.25;2.60;;;19.20;99.90;;;;;;5066236;28;20031;-69
2022/08/03 07:14:54;;;;;;;12.13;2.85;;;19.30;99.90;;;;;;5064842;28;20060;-70
2022/08/03 07:17:20;;;;;;;11.45;3.33;;;19.30;99.90;;;;;;5063498;28;20028;-68
2022/08/03 07:19:46;;;;;;;12.75;2.83;;;19.30;99.90;;;;;;5066247;28;20077;-69
2022/08/03 07:22:11;;;;;;;8.88;2.30;;;19.30;99.90;;;;;;5066570;28;20036;-68
2022/08/03 07:24:37;;;;;;;9.70;2.25;;;19.30;99.90;;;;;;5065255;28;20078;-69
2022/08/03 07:27:03;;;;;;;5.47;2.03;;;19.30;99.90;;;;;;5067916;28;20068;-67
2022/08/03 07:29:29;;;;;;;7.25;1.73;;;19.30;99.90;;;;;;5063672;28;20107;-68
2022/08/03 07:31:54;;;;;;;5.80;1.77;;;19.40;99.90;;;;;;5049389;28;20036;-69
2022/08/03 07:34:20;;;;;;;8.27;2.00;;;19.40;99.90;;;;;;5046974;28;20471;-69
2022/08/03 07:36:46;;;;;;;7.72;2.40;;;19.40;99.90;;;;;;5066950;28;20033;-68
2022/08/03 07:39:12;;;;;;;11.90;3.15;;;19.50;99.90;;;;;;5051233;28;20067;-69
2022/08/03 07:41:37;;;;;;;10.48;3.47;;;19.50;99.90;;;;;;5067889;28;20032;-68
2022/08/03 07:44:03;;;;;;;9.60;2.67;;;19.50;99.90;;;;;;5066380;28;20036;-68
2022/08/03 07:46:29;;;;;;;11.63;3.22;;;19.50;99.90;;;;;;5065601;28;20168;-68
2022/08/03 07:48:54;;;;;;;7.88;2.97;;;19.50;99.90;;;;;;5066701;28;20047;-69
2022/08/03 07:51:20;;;;;;;9.20;2.92;;;19.50;99.90;;;;;;5063848;28;20044;-68
2022/08/03 07:53:46;;;;;;;10.05;2.70;;;19.50;99.90;;;;;;5063765;28;20083;-68
2022/08/03 07:56:11;;;;;;;11.23;2.88;;;19.50;99.90;;;;;;5046485;28;20067;-68
2022/08/03 07:58:37;;;;;;;10.73;3.20;;;19.50;99.90;;;;;;5062964;28;20032;-69
2022/08/03 08:01:03;;;;;;;13.73;3.35;;;19.50;99.90;;;;;;5065954;28;20032;-69
2022/08/03 08:03:29;;;;;;;10.55;3.53;;;19.50;99.90;;;;;;5066654;28;20028;-69
2022/08/03 08:05:54;;;;;;;12.77;3.35;;;19.50;99.90;;;;;;5057029;28;20703;-69
2022/08/03 08:08:20;;;;;;;18.27;3.83;;;19.50;99.90;;;;;;5064976;28;20477;-69
2022/08/03 08:10:46;;;;;;;12.60;3.28;;;19.40;99.90;;;;;;5045152;28;20095;-68
2022/08/03 08:13:12;;;;;;;10.27;3.17;;;19.50;99.90;;;;;;5040738;28;20024;-68
2022/08/03 08:15:38;;;;;;;10.88;2.97;;;19.50;99.90;;;;;;5059469;28;20380;-69
2022/08/03 08:18:04;;;;;;;12.32;3.67;;;19.50;99.90;;;;;;5066322;28;20162;-70
2022/08/03 08:20:32;;;;;;;13.48;4.10;;;19.50;99.90;;;;;;5049117;28;20549;-68
2022/08/03 08:23:04;;;;;;;12.32;3.90;;;19.50;99.90;;;;;;5044429;28;20040;-69
2022/08/03 08:25:31;;;;;;;12.95;3.70;;;19.50;99.90;;;;;;5044727;28;20036;-70
2022/08/03 08:27:57;;;;;;;10.13;3.63;;;19.50;99.90;;;;;;5059093;28;20029;-69
2022/08/03 08:30:23;;;;;;;10.43;3.72;;;19.60;99.90;;;;;;5048456;28;20033;-67
2022/08/03 08:32:49;;;;;;;12.05;3.30;;;19.60;99.90;;;;;;5065907;28;20510;-68
2022/08/03 08:35:16;;;;;;;14.18;3.38;;;19.50;99.90;;;;;;5065617;28;20060;-67
2022/08/03 08:37:42;;;;;;;9.15;3.00;;;19.60;99.90;;;;;;5069126;28;20051;-69
2022/08/03 08:40:09;;;;;;;11.77;2.72;;;19.60;99.90;;;;;;5068895;28;20035;-68
2022/08/03 08:42:39;;;;;;;15.77;3.30;;;19.60;99.90;;;;;;5069606;28;20489;-70
2022/08/03 08:45:07;;;;;;;12.00;3.00;;;19.60;99.90;;;;;;5068877;28;20739;-68
2022/08/03 08:47:36;;;;;;;15.93;3.90;;;19.60;99.90;;;;;;5069059;28;20067;-70
2022/08/03 08:50:03;;;;;;;12.83;3.37;;;19.60;99.90;;;;;;5067802;28;20490;-69
2022/08/03 08:52:29;;;;;;;17.98;3.92;;;19.60;99.90;;;;;;5068892;28;20486;-69
2022/08/03 08:55:03;;;;;;;13.00;3.10;;;19.60;99.90;;;;;;5068524;28;20040;-70
2022/08/03 08:57:50;;;;;;;9.45;2.95;;;19.70;99.90;;;;;;5069102;28;20048;-69
2022/08/03 09:00:17;;;;;;;11.93;2.90;;;19.70;99.90;;;;;;5049110;28;20060;-69
2022/08/03 09:02:44;;;;;;;11.55;2.75;;;19.70;99.90;;;;;;5068715;28;20105;-68
2022/08/03 09:05:12;;;;;;;11.50;2.63;;;19.80;99.90;;;;;;5068728;28;20041;-69
2022/08/03 09:07:38;;;;;;;7.13;2.20;;;19.90;99.90;;;;;;5068082;28;20028;-70
2022/08/03 09:10:06;;;;;;;11.10;2.75;;;19.90;99.90;;;;;;5066945;28;20032;-69
2022/08/03 09:12:46;;;;;;;14.10;3.55;;;20.00;99.90;;;;;;5068565;28;20490;-69
2022/08/03 09:15:32;;;;;;;11.98;3.17;;;20.10;99.90;;;;;;5048827;28;20467;-72
2022/08/03 09:18:03;;;;;;;15.15;3.63;;;20.20;99.90;;;;;;5047423;28;20036;-71
2022/08/03 09:20:31;;;;;;;14.05;3.38;;;20.20;99.90;;;;;;5049644;28;20049;-69
2022/08/03 09:23:07;;;;;;;17.52;3.22;;;20.30;99.90;;;;;;5068546;28;20029;-69
2022/08/03 09:25:39;;;;;;;15.43;2.88;;;20.30;99.90;;;;;;5068981;28;20067;-69
2022/08/03 09:28:12;;;;;;;10.25;2.50;;;20.30;99.90;;;;;;5068857;28;20051;-70
2022/08/03 09:30:43;;;;;;;12.85;3.30;;;20.40;99.90;;;;;;5068420;28;20486;-70
2022/08/03 09:33:11;;;;;;;11.30;2.90;;;20.50;99.90;;;;;;5067596;28;20032;-68
2022/08/03 09:35:48;;;;;;;12.55;2.70;;;20.50;99.90;;;;;;5048176;28;20076;-69
2022/08/03 09:38:28;;;;;;;10.07;2.42;;;20.50;99.90;;;;;;5045837;28;20025;-69
2022/08/03 09:40:55;;;;;;;10.80;3.10;;;20.40;99.90;;;;;;5068478;28;20029;-71
2022/08/03 09:43:24;;;;;;;13.63;3.13;;;20.40;99.90;;;;;;5049977;28;20090;-71
2022/08/03 09:45:51;;;;;;;9.35;2.65;;;20.40;99.90;;;;;;5067984;28;20044;-68
2022/08/03 09:48:26;;;;;;;13.63;3.25;;;20.40;99.90;;;;;;5068349;28;20043;-71
2022/08/03 09:50:54;;;;;;;10.80;2.28;;;20.40;99.90;;;;;;5068154;28;20028;-69
2022/08/03 09:53:20;;;;;;;12.90;2.63;;;20.40;99.90;;;;;;5066146;28;20044;-69
2022/08/03 09:55:54;;;;;;;9.48;2.83;;;20.40;99.90;;;;;;5068324;28;20032;-68
2022/08/03 09:58:21;;;;;;;22.48;3.67;;;20.30;99.90;;;;;;5050147;28;20028;-70
2022/08/03 10:01:00;;;;;;;10.02;2.50;;;20.30;99.90;;;;;;5068039;28;20032;-69
2022/08/03 10:03:28;;;;;;;10.52;3.05;;;20.30;99.90;;;;;;5049961;28;20048;-69
2022/08/03 10:05:54;;;;;;;9.70;2.30;;;20.30;99.90;;;;;;5068226;28;20044;-70
2022/08/03 10:08:20;;;;;;;9.13;2.50;;;20.30;99.90;;;;;;5067039;28;20029;-70
2022/08/03 10:10:48;;;;;;;9.50;3.20;;;20.40;99.90;;;;;;5050077;28;20528;-70
2022/08/03 10:13:17;;;;;;;10.73;2.38;;;20.40;99.90;;;;;;5067997;28;20029;-69
2022/08/03 10:15:44;;;;;;;;;;;20.40;99.90;;;;;;5049244;28;20402;-69
2022/08/03 10:18:10;;;;;;;9.85;2.90;;;20.40;99.90;;;;;;5054262;28;19916;-69
2022/08/03 10:20:51;;;;;;;13.00;3.00;;;20.40;99.90;;;;;;5029371;28;20395;-70
2022/08/03 10:23:18;;;;;;;13.90;3.03;;;20.30;99.90;;;;;;5048378;28;20671;-69
2022/08/03 10:25:48;;;;;;;11.18;2.90;;;20.40;99.90;;;;;;5047781;28;20102;-70
2022/08/03 10:28:17;;;;;;;12.13;3.55;;;20.40;99.90;;;;;;5050535;28;20035;-70
2022/08/03 10:30:49;;;;;;;13.32;3.08;;;20.50;99.90;;;;;;5069075;28;20052;-69
2022/08/03 10:33:21;;;;;;;10.73;2.90;;;20.50;99.90;;;;;;5071822;28;20040;-69
2022/08/03 10:35:56;;;;;;;8.45;2.60;;;20.60;99.90;;;;;;5053090;28;20102;-70
2022/08/03 10:38:31;;;;;;;11.85;2.70;;;20.70;99.90;;;;;;5071522;28;20024;-69
2022/08/03 10:40:59;;;;;;;10.43;2.17;;;20.80;99.90;;;;;;5053572;28;20039;-69
2022/08/03 10:43:33;;;;;;;10.07;2.28;;;20.90;99.90;;;;;;5071579;28;20093;-70
2022/08/03 10:46:01;;;;;;;10.38;2.25;;;21.00;99.90;;;;;;5070741;28;20044;-70
2022/08/03 10:48:27;;;;;;;11.23;2.67;;;21.10;99.90;;;;;;5052416;28;20449;-70
2022/08/03 10:50:52;;;;;;;11.45;3.10;;;21.20;99.90;;;;;;5071187;28;20021;-70
2022/08/03 10:53:37;;;;;;;10.18;2.58;;;21.30;99.90;;;;;;5071048;28;20107;-70
2022/08/03 10:58:50;;;;;;;11.50;2.72;;;21.40;99.90;;;;;;5071194;28;20103;-70
2022/08/03 11:01:18;;;;;;;11.55;2.53;;;21.50;99.90;;;;;;5070157;28;20029;-70
2022/08/03 11:03:52;;;;;;;7.45;2.00;;;21.60;99.90;;;;;;5033023;28;20166;-69
2022/08/03 11:06:24;;;;;;;7.22;1.95;;;21.70;99.90;;;;;;5051032;28;20123;-70
2022/08/03 11:09:09;;;;;;;8.60;2.00;;;21.70;99.90;;;;;;5033171;28;20037;-70
2022/08/03 11:11:41;;;;;;;10.30;2.00;;;21.80;99.90;;;;;;5050902;28;20112;-69
2022/08/03 11:14:12;;;;;;;9.45;2.20;;;21.70;99.90;;;;;;5032664;28;20060;-69
2022/08/03 11:16:44;;;;;;;10.60;1.90;;;21.70;99.90;;;;;;5038591;28;20440;-69
2022/08/03 11:19:13;;;;;;;8.88;2.13;;;21.60;99.90;;;;;;5070716;28;20025;-67
2022/08/03 11:21:51;;;;;;;8.38;2.30;;;21.60;99.90;;;;;;5052859;28;20071;-67
2022/08/03 11:24:35;;;;;;;6.63;2.17;;;21.60;99.90;;;;;;5070148;28;20039;-69
2022/08/03 11:27:13;;;;;;;8.10;2.47;;;21.60;99.90;;;;;;5068352;28;20033;-69
2022/08/03 11:29:52;;;;;;;8.90;2.45;;;21.80;99.90;;;;;;5069109;28;20044;-69
2022/08/03 11:32:36;;;;;;;7.38;2.40;;;21.90;99.90;;;;;;5070664;28;20480;-70
2022/08/03 11:35:32;;;;;;;10.10;2.22;;;22.00;99.90;;;;;;5070009;28;20425;-70
2022/08/03 11:38:01;;;;;;;8.05;2.20;;;22.00;99.90;;;;;;5069111;28;20082;-71
2022/08/03 11:40:36;;;;;;;8.52;2.13;;;22.00;99.90;;;;;;5050543;28;20068;-70
2022/08/03 11:43:29;;;;;;;14.35;2.30;;;22.10;99.90;;;;;;5069737;28;20041;-70
2022/08/03 11:46:12;;;;;;;8.55;2.10;;;22.20;99.90;;;;;;5069952;28;20044;-69
2022/08/03 11:48:44;;;;;;;9.82;2.25;;;22.20;99.90;;;;;;5052154;28;20044;-70
2022/08/03 11:51:26;;;;;;;9.07;2.40;;;22.10;99.90;;;;;;5070362;28;20021;-70
2022/08/03 11:54:00;;;;;;;10.15;2.80;;;22.10;99.90;;;;;;5069964;28;20430;-69
2022/08/03 11:56:26;;;;;;;10.00;2.30;;;22.10;99.90;;;;;;5069224;28;20033;-70
2022/08/03 11:58:57;;;;;;;9.65;2.75;;;22.20;99.90;;;;;;5051324;28;20385;-70
2022/08/03 12:01:24;;;;;;;10.32;2.15;;;22.20;99.90;;;;;;5051964;28;20029;-69
2022/08/03 12:03:50;;;;;;;12.68;2.65;;;22.30;99.90;;;;;;5069657;28;20046;-69
2022/08/03 12:06:17;;;;;;;11.10;2.47;;;22.20;99.90;;;;;;5069794;28;20028;-69
2022/08/03 12:08:44;;;;;;;10.98;2.80;;;22.10;99.90;;;;;;5069904;28;20033;-68
2022/08/03 12:11:14;;;;;;;7.25;2.42;;;22.00;99.90;;;;;;5069954;28;20107;-69
2022/08/03 12:13:44;;;;;;;10.75;2.50;;;22.00;99.90;;;;;;5068386;28;20024;-70
2022/08/03 12:16:15;;;;;;;10.68;2.50;;;21.80;99.90;;;;;;5068894;28;20056;-68
2022/08/03 12:18:41;;;;;;;7.32;1.90;;;21.70;99.90;;;;;;5064703;28;20029;-68
2022/08/03 12:21:09;;;;;;;9.57;2.28;;;21.70;99.90;;;;;;5041255;28;20442;-68
2022/08/03 12:23:35;;;;;;;7.13;2.10;;;21.60;99.90;;;;;;5031439;28;20036;-69
2022/08/03 12:26:06;;;;;;;9.32;2.90;;;21.60;99.90;;;;;;5031581;28;20040;-70
2022/08/03 12:28:33;;;;;;;6.60;2.05;;;21.60;99.90;;;;;;5031501;28;20032;-67
2022/08/03 12:31:05;;;;;;;8.77;2.30;;;21.60;99.90;;;;;;5031187;28;20124;-68
2022/08/03 12:33:31;;;;;;;7.53;2.30;;;21.50;99.90;;;;;;5031130;28;20036;-69
2022/08/03 12:36:08;;;;;;;8.82;2.40;;;21.60;99.90;;;;;;5058128;28;20041;-69
2022/08/03 12:38:37;;;;;;;10.50;2.67;;;21.50;99.90;;;;;;5068128;28;20046;-69
2022/08/03 12:41:07;;;;;;;8.07;2.25;;;21.50;99.90;;;;;;5069086;28;20078;-70
2022/08/03 12:43:33;;;;;;;9.57;2.90;;;21.50;99.90;;;;;;5050934;28;20078;-69
2022/08/03 12:46:11;;;;;;;10.45;3.35;;;21.50;99.90;;;;;;5068775;28;20148;-69
2022/08/03 12:48:55;;;;;;;7.70;2.53;;;21.50;99.90;;;;;;5069003;28;20033;-69
2022/08/03 12:51:20;;;;;;;12.63;2.67;;;21.40;99.90;;;;;;5069030;28;20059;-70
2022/08/03 12:53:52;;;;;;;7.32;2.33;;;21.50;99.90;;;;;;5067663;28;20466;-71
2022/08/03 12:56:19;;;;;;;10.10;2.28;;;21.50;99.90;;;;;;5061908;28;20032;-68
2022/08/03 12:58:46;;;;;;;9.25;3.20;;;21.50;99.90;;;;;;5048825;28;20060;-69